sensor_id;sensor_type;location;lat;lon;timestamp;pressure;altitude;pressure_sealevel;temperature
64904;BMP280;51401;48.882;12.598;2022-10-16T00:00:43;96372.16;;;15.14
64904;BMP280;51401;48.882;12.598;2022-10-16T00:03:09;96370.38;;;15.11
64904;BMP280;51401;48.882;12.598;2022-10-16T00:05:40;96371.09;;;15.12
64904;BMP280;51401;48.882;12.598;2022-10-16T00:08:07;96374.13;;;15.10
64904;BMP280;51401;48.882;12.598;2022-10-16T00:10:33;96367.06;;;15.11
64904;BMP280;51401;48.882;12.598;2022-10-16T00:12:58;96367.53;;;15.18
64904;BMP280;51401;48.882;12.598;2022-10-16T00:15:24;96365.47;;;15.22
64904;BMP280;51401;48.882;12.598;2022-10-16T00:17:49;96358.78;;;15.21
64904;BMP280;51401;48.882;12.598;2022-10-16T00:20:14;96363.91;;;15.25
64904;BMP280;51401;48.882;12.598;2022-10-16T00:22:40;96349.66;;;15.26
64904;BMP280;51401;48.882;12.598;2022-10-16T00:25:06;96346.31;;;15.25
64904;BMP280;51401;48.882;12.598;2022-10-16T00:27:31;96348.66;;;15.23
64904;BMP280;51401;48.882;12.598;2022-10-16T00:29:56;96354.16;;;15.16
64904;BMP280;51401;48.882;12.598;2022-10-16T00:32:22;96352.28;;;15.17
64904;BMP280;51401;48.882;12.598;2022-10-16T00:34:47;96350.06;;;15.15
64904;BMP280;51401;48.882;12.598;2022-10-16T00:37:13;96356.78;;;15.16
64904;BMP280;51401;48.882;12.598;2022-10-16T00:39:38;96358.47;;;15.10
64904;BMP280;51401;48.882;12.598;2022-10-16T00:42:04;96357.75;;;15.10
64904;BMP280;51401;48.882;12.598;2022-10-16T00:44:49;96356.50;;;15.14
64904;BMP280;51401;48.882;12.598;2022-10-16T00:49:57;96336.16;;;15.09
64904;BMP280;51401;48.882;12.598;2022-10-16T00:52:24;96341.97;;;15.13
64904;BMP280;51401;48.882;12.598;2022-10-16T00:54:49;96327.91;;;15.11
64904;BMP280;51401;48.882;12.598;2022-10-16T00:57:16;96325.56;;;15.04
64904;BMP280;51401;48.882;12.598;2022-10-16T00:59:42;96332.53;;;15.07
64904;BMP280;51401;48.882;12.598;2022-10-16T01:02:09;96334.97;;;15.10
64904;BMP280;51401;48.882;12.598;2022-10-16T01:04:45;96347.16;;;15.04
64904;BMP280;51401;48.882;12.598;2022-10-16T01:07:45;96365.59;;;15.01
64904;BMP280;51401;48.882;12.598;2022-10-16T01:16:17;96387.75;;;14.97
64904;BMP280;51401;48.882;12.598;2022-10-16T01:18:46;96390.50;;;14.93
64904;BMP280;51401;48.882;12.598;2022-10-16T01:21:27;96395.25;;;14.86
64904;BMP280;51401;48.882;12.598;2022-10-16T01:26:57;96395.69;;;14.84
64904;BMP280;51401;48.882;12.598;2022-10-16T01:29:27;96416.38;;;14.79
64904;BMP280;51401;48.882;12.598;2022-10-16T01:31:59;96423.78;;;14.80
64904;BMP280;51401;48.882;12.598;2022-10-16T01:34:49;96427.41;;;14.74
64904;BMP280;51401;48.882;12.598;2022-10-16T01:37:22;96438.69;;;14.71
64904;BMP280;51401;48.882;12.598;2022-10-16T01:39:50;96442.47;;;14.70
64904;BMP280;51401;48.882;12.598;2022-10-16T01:42:22;96443.19;;;14.71
64904;BMP280;51401;48.882;12.598;2022-10-16T01:44:50;96459.25;;;14.69
64904;BMP280;51401;48.882;12.598;2022-10-16T01:47:17;96460.28;;;14.72
64904;BMP280;51401;48.882;12.598;2022-10-16T01:49:45;96467.66;;;14.73
64904;BMP280;51401;48.882;12.598;2022-10-16T01:52:15;96471.16;;;14.70
64904;BMP280;51401;48.882;12.598;2022-10-16T01:54:43;96477.50;;;14.69
64904;BMP280;51401;48.882;12.598;2022-10-16T01:57:11;96489.97;;;14.65
64904;BMP280;51401;48.882;12.598;2022-10-16T01:59:42;96493.00;;;14.64
64904;BMP280;51401;48.882;12.598;2022-10-16T02:02:10;96497.47;;;14.63
64904;BMP280;51401;48.882;12.598;2022-10-16T02:04:40;96503.53;;;14.60
64904;BMP280;51401;48.882;12.598;2022-10-16T02:07:07;96514.41;;;14.59
64904;BMP280;51401;48.882;12.598;2022-10-16T02:09:33;96501.97;;;14.63
64904;BMP280;51401;48.882;12.598;2022-10-16T02:12:03;96506.03;;;14.64
64904;BMP280;51401;48.882;12.598;2022-10-16T02:14:32;96519.38;;;14.66
64904;BMP280;51401;48.882;12.598;2022-10-16T02:16:57;96528.78;;;14.63
64904;BMP280;51401;48.882;12.598;2022-10-16T02:19:23;96534.84;;;14.60
64904;BMP280;51401;48.882;12.598;2022-10-16T02:21:54;96542.97;;;14.62
64904;BMP280;51401;48.882;12.598;2022-10-16T02:24:43;96547.19;;;14.60
64904;BMP280;51401;48.882;12.598;2022-10-16T02:27:17;96552.09;;;14.58
64904;BMP280;51401;48.882;12.598;2022-10-16T02:29:48;96559.59;;;14.56
64904;BMP280;51401;48.882;12.598;2022-10-16T02:32:21;96572.44;;;14.50
64904;BMP280;51401;48.882;12.598;2022-10-16T02:34:48;96575.00;;;14.42
64904;BMP280;51401;48.882;12.598;2022-10-16T02:37:16;96587.38;;;14.38
64904;BMP280;51401;48.882;12.598;2022-10-16T02:39:42;96609.44;;;14.37
64904;BMP280;51401;48.882;12.598;2022-10-16T02:42:12;96618.94;;;14.31
64904;BMP280;51401;48.882;12.598;2022-10-16T02:44:38;96613.94;;;14.24
64904;BMP280;51401;48.882;12.598;2022-10-16T02:47:03;96625.63;;;14.19
64904;BMP280;51401;48.882;12.598;2022-10-16T02:49:28;96627.19;;;14.17
64904;BMP280;51401;48.882;12.598;2022-10-16T02:51:54;96632.41;;;14.17
64904;BMP280;51401;48.882;12.598;2022-10-16T02:54:19;96636.28;;;14.13
64904;BMP280;51401;48.882;12.598;2022-10-16T02:56:45;96637.22;;;14.06
64904;BMP280;51401;48.882;12.598;2022-10-16T02:59:10;96651.91;;;14.00
64904;BMP280;51401;48.882;12.598;2022-10-16T03:01:35;96651.09;;;14.03
64904;BMP280;51401;48.882;12.598;2022-10-16T03:04:01;96662.16;;;14.07
64904;BMP280;51401;48.882;12.598;2022-10-16T03:06:26;96657.75;;;14.04
64904;BMP280;51401;48.882;12.598;2022-10-16T03:08:51;96669.44;;;14.00
64904;BMP280;51401;48.882;12.598;2022-10-16T03:11:17;96671.03;;;13.97
64904;BMP280;51401;48.882;12.598;2022-10-16T03:13:42;96665.16;;;13.93
64904;BMP280;51401;48.882;12.598;2022-10-16T03:16:07;96670.59;;;13.99
64904;BMP280;51401;48.882;12.598;2022-10-16T03:18:33;96692.81;;;13.91
64904;BMP280;51401;48.882;12.598;2022-10-16T03:20:58;96689.66;;;13.96
64904;BMP280;51401;48.882;12.598;2022-10-16T03:23:23;96694.56;;;13.94
64904;BMP280;51401;48.882;12.598;2022-10-16T03:25:48;96689.00;;;14.04
64904;BMP280;51401;48.882;12.598;2022-10-16T03:28:14;96692.47;;;14.01
64904;BMP280;51401;48.882;12.598;2022-10-16T03:30:39;96698.22;;;13.96
64904;BMP280;51401;48.882;12.598;2022-10-16T03:33:05;96691.31;;;14.02
64904;BMP280;51401;48.882;12.598;2022-10-16T03:35:31;96694.47;;;13.97
64904;BMP280;51401;48.882;12.598;2022-10-16T03:37:56;96696.97;;;14.01
64904;BMP280;51401;48.882;12.598;2022-10-16T03:40:22;96697.28;;;14.03
64904;BMP280;51401;48.882;12.598;2022-10-16T03:42:47;96698.31;;;13.93
64904;BMP280;51401;48.882;12.598;2022-10-16T03:45:13;96698.63;;;13.95
64904;BMP280;51401;48.882;12.598;2022-10-16T03:47:38;96708.72;;;13.93
64904;BMP280;51401;48.882;12.598;2022-10-16T03:50:04;96718.31;;;13.96
64904;BMP280;51401;48.882;12.598;2022-10-16T03:52:30;96715.31;;;13.97
64904;BMP280;51401;48.882;12.598;2022-10-16T03:54:55;96711.44;;;14.02
64904;BMP280;51401;48.882;12.598;2022-10-16T03:57:20;96707.78;;;13.99
64904;BMP280;51401;48.882;12.598;2022-10-16T03:59:46;96712.38;;;13.95
64904;BMP280;51401;48.882;12.598;2022-10-16T04:02:12;96728.44;;;13.94
64904;BMP280;51401;48.882;12.598;2022-10-16T04:04:37;96729.75;;;13.86
64904;BMP280;51401;48.882;12.598;2022-10-16T04:07:02;96733.63;;;13.82
64904;BMP280;51401;48.882;12.598;2022-10-16T04:09:28;96740.28;;;13.83
64904;BMP280;51401;48.882;12.598;2022-10-16T04:11:53;96742.28;;;13.79
64904;BMP280;51401;48.882;12.598;2022-10-16T04:14:18;96753.31;;;13.83
64904;BMP280;51401;48.882;12.598;2022-10-16T04:16:44;96753.22;;;13.74
64904;BMP280;51401;48.882;12.598;2022-10-16T04:19:10;96762.56;;;13.71
64904;BMP280;51401;48.882;12.598;2022-10-16T04:21:35;96767.91;;;13.68
64904;BMP280;51401;48.882;12.598;2022-10-16T04:24:01;96768.28;;;13.66
64904;BMP280;51401;48.882;12.598;2022-10-16T04:26:26;96769.31;;;13.69
64904;BMP280;51401;48.882;12.598;2022-10-16T04:28:51;96762.03;;;13.64
64904;BMP280;51401;48.882;12.598;2022-10-16T04:31:17;96762.03;;;13.64
64904;BMP280;51401;48.882;12.598;2022-10-16T04:33:43;96778.16;;;13.59
64904;BMP280;51401;48.882;12.598;2022-10-16T04:36:08;96780.13;;;13.55
64904;BMP280;51401;48.882;12.598;2022-10-16T04:38:33;96786.81;;;13.56
64904;BMP280;51401;48.882;12.598;2022-10-16T04:40:59;96793.97;;;13.52
64904;BMP280;51401;48.882;12.598;2022-10-16T04:43:25;96789.16;;;13.51
64904;BMP280;51401;48.882;12.598;2022-10-16T04:45:51;96784.38;;;13.49
64904;BMP280;51401;48.882;12.598;2022-10-16T04:48:17;96790.75;;;13.48
64904;BMP280;51401;48.882;12.598;2022-10-16T04:50:42;96793.34;;;13.48
64904;BMP280;51401;48.882;12.598;2022-10-16T04:53:08;96798.66;;;13.57
64904;BMP280;51401;48.882;12.598;2022-10-16T04:55:33;96799.00;;;13.59
64904;BMP280;51401;48.882;12.598;2022-10-16T04:57:59;96804.09;;;13.62
64904;BMP280;51401;48.882;12.598;2022-10-16T05:00:24;96803.59;;;13.67
64904;BMP280;51401;48.882;12.598;2022-10-16T05:02:50;96810.94;;;13.72
64904;BMP280;51401;48.882;12.598;2022-10-16T05:05:16;96817.69;;;13.70
64904;BMP280;51401;48.882;12.598;2022-10-16T05:07:44;96818.81;;;13.69
64904;BMP280;51401;48.882;12.598;2022-10-16T05:10:09;96825.19;;;13.68
64904;BMP280;51401;48.882;12.598;2022-10-16T05:12:34;96818.50;;;13.67
64904;BMP280;51401;48.882;12.598;2022-10-16T05:14:59;96822.06;;;13.73
64904;BMP280;51401;48.882;12.598;2022-10-16T05:17:25;96813.81;;;13.74
64904;BMP280;51401;48.882;12.598;2022-10-16T05:19:51;96826.16;;;13.74
64904;BMP280;51401;48.882;12.598;2022-10-16T05:22:16;96822.31;;;13.78
64904;BMP280;51401;48.882;12.598;2022-10-16T05:24:41;96823.03;;;13.79
64904;BMP280;51401;48.882;12.598;2022-10-16T05:27:07;96812.28;;;13.77
64904;BMP280;51401;48.882;12.598;2022-10-16T05:29:32;96814.38;;;13.82
64904;BMP280;51401;48.882;12.598;2022-10-16T05:31:57;96802.00;;;13.86
64904;BMP280;51401;48.882;12.598;2022-10-16T05:34:23;96805.09;;;13.81
64904;BMP280;51401;48.882;12.598;2022-10-16T05:36:48;96805.19;;;13.77
64904;BMP280;51401;48.882;12.598;2022-10-16T05:39:15;96811.16;;;13.78
64904;BMP280;51401;48.882;12.598;2022-10-16T05:41:40;96809.28;;;13.78
64904;BMP280;51401;48.882;12.598;2022-10-16T05:44:06;96806.84;;;13.71
64904;BMP280;51401;48.882;12.598;2022-10-16T05:46:32;96807.06;;;13.77
64904;BMP280;51401;48.882;12.598;2022-10-16T05:48:57;96805.06;;;13.68
64904;BMP280;51401;48.882;12.598;2022-10-16T05:51:23;96811.22;;;13.74
64904;BMP280;51401;48.882;12.598;2022-10-16T05:53:48;96818.81;;;13.69
64904;BMP280;51401;48.882;12.598;2022-10-16T05:56:13;96820.00;;;13.68
64904;BMP280;51401;48.882;12.598;2022-10-16T05:58:39;96819.75;;;13.75
64904;BMP280;51401;48.882;12.598;2022-10-16T06:01:14;96831.53;;;13.67
64904;BMP280;51401;48.882;12.598;2022-10-16T06:03:40;96827.16;;;13.64
64904;BMP280;51401;48.882;12.598;2022-10-16T06:06:14;96813.75;;;13.78
64904;BMP280;51401;48.882;12.598;2022-10-16T06:08:40;96813.75;;;13.78
64904;BMP280;51401;48.882;12.598;2022-10-16T06:11:10;96804.63;;;13.86
64904;BMP280;51401;48.882;12.598;2022-10-16T06:13:35;96794.28;;;13.94
64904;BMP280;51401;48.882;12.598;2022-10-16T06:16:01;96773.66;;;14.00
64904;BMP280;51401;48.882;12.598;2022-10-16T06:18:28;96774.63;;;14.06
64904;BMP280;51401;48.882;12.598;2022-10-16T06:20:54;96764.00;;;14.13
64904;BMP280;51401;48.882;12.598;2022-10-16T06:23:19;96748.75;;;14.23
64904;BMP280;51401;48.882;12.598;2022-10-16T06:25:44;96732.78;;;14.34
64904;BMP280;51401;48.882;12.598;2022-10-16T06:28:10;96707.66;;;14.52
64904;BMP280;51401;48.882;12.598;2022-10-16T06:30:35;96673.16;;;14.69
64904;BMP280;51401;48.882;12.598;2022-10-16T06:33:00;96624.88;;;14.86
64904;BMP280;51401;48.882;12.598;2022-10-16T06:35:26;96569.91;;;14.80
64904;BMP280;51401;48.882;12.598;2022-10-16T06:37:52;96513.22;;;14.81
64904;BMP280;51401;48.882;12.598;2022-10-16T06:40:18;96460.16;;;14.75
64904;BMP280;51401;48.882;12.598;2022-10-16T06:42:43;96399.41;;;14.74
64904;BMP280;51401;48.882;12.598;2022-10-16T06:45:09;96363.59;;;14.66
64904;BMP280;51401;48.882;12.598;2022-10-16T06:47:34;96324.06;;;14.68
64904;BMP280;51401;48.882;12.598;2022-10-16T06:50:00;96283.75;;;14.69
64904;BMP280;51401;48.882;12.598;2022-10-16T06:52:27;96235.66;;;14.70
64904;BMP280;51401;48.882;12.598;2022-10-16T06:54:53;96188.84;;;15.01
64904;BMP280;51401;48.882;12.598;2022-10-16T06:57:18;96092.50;;;15.21
64904;BMP280;51401;48.882;12.598;2022-10-16T06:59:44;95982.22;;;15.35
64904;BMP280;51401;48.882;12.598;2022-10-16T07:02:09;95888.38;;;15.31
64904;BMP280;51401;48.882;12.598;2022-10-16T07:04:35;95829.63;;;15.36
64904;BMP280;51401;48.882;12.598;2022-10-16T07:07:01;95819.53;;;15.29
64904;BMP280;51401;48.882;12.598;2022-10-16T07:09:26;95806.47;;;15.29
64904;BMP280;51401;48.882;12.598;2022-10-16T07:11:51;95800.38;;;15.32
64904;BMP280;51401;48.882;12.598;2022-10-16T07:14:19;95802.22;;;15.31
64904;BMP280;51401;48.882;12.598;2022-10-16T07:16:45;95790.84;;;15.57
64904;BMP280;51401;48.882;12.598;2022-10-16T07:19:10;95778.94;;;15.99
64904;BMP280;51401;48.882;12.598;2022-10-16T07:21:38;95841.56;;;15.94
64904;BMP280;51401;48.882;12.598;2022-10-16T07:24:05;95858.75;;;16.00
64904;BMP280;51401;48.882;12.598;2022-10-16T07:26:33;95885.38;;;15.99
64904;BMP280;51401;48.882;12.598;2022-10-16T07:28:59;95916.84;;;16.33
64904;BMP280;51401;48.882;12.598;2022-10-16T07:31:26;96013.50;;;16.70
64904;BMP280;51401;48.882;12.598;2022-10-16T07:33:52;96191.38;;;16.93
64904;BMP280;51401;48.882;12.598;2022-10-16T07:36:19;96291.31;;;16.69
64904;BMP280;51401;48.882;12.598;2022-10-16T07:38:45;96198.81;;;16.57
64904;BMP280;51401;48.882;12.598;2022-10-16T07:41:12;96218.72;;;16.92
64904;BMP280;51401;48.882;12.598;2022-10-16T07:43:38;96310.72;;;17.23
64904;BMP280;51401;48.882;12.598;2022-10-16T07:46:04;96431.00;;;18.01
64904;BMP280;51401;48.882;12.598;2022-10-16T07:48:31;96694.47;;;18.23
64904;BMP280;51401;48.882;12.598;2022-10-16T07:51:02;96790.88;;;17.73
64904;BMP280;51401;48.882;12.598;2022-10-16T07:53:28;96733.94;;;17.64
64904;BMP280;51401;48.882;12.598;2022-10-16T07:56:04;96656.41;;;17.72
64904;BMP280;51401;48.882;12.598;2022-10-16T07:58:30;96619.59;;;17.90
64904;BMP280;51401;48.882;12.598;2022-10-16T08:00:55;96713.56;;;18.00
64904;BMP280;51401;48.882;12.598;2022-10-16T08:03:21;96801.00;;;18.52
64904;BMP280;51401;48.882;12.598;2022-10-16T08:05:46;96950.47;;;18.64
64904;BMP280;51401;48.882;12.598;2022-10-16T08:08:14;96936.09;;;18.51
64904;BMP280;51401;48.882;12.598;2022-10-16T08:10:40;96918.75;;;18.45
64904;BMP280;51401;48.882;12.598;2022-10-16T08:13:05;96939.25;;;18.64
64904;BMP280;51401;48.882;12.598;2022-10-16T08:15:30;97039.06;;;18.46
64904;BMP280;51401;48.882;12.598;2022-10-16T08:18:01;97040.44;;;18.74
64904;BMP280;51401;48.882;12.598;2022-10-16T08:20:28;97094.91;;;18.64
64904;BMP280;51401;48.882;12.598;2022-10-16T08:22:54;97067.66;;;18.09
64904;BMP280;51401;48.882;12.598;2022-10-16T08:25:23;97086.03;;;18.44
64904;BMP280;51401;48.882;12.598;2022-10-16T08:27:49;97113.44;;;18.43
64904;BMP280;51401;48.882;12.598;2022-10-16T08:30:15;97152.81;;;18.70
64904;BMP280;51401;48.882;12.598;2022-10-16T08:32:40;97150.06;;;18.47
64904;BMP280;51401;48.882;12.598;2022-10-16T08:35:10;97119.53;;;17.87
64904;BMP280;51401;48.882;12.598;2022-10-16T08:37:36;97046.84;;;17.97
64904;BMP280;51401;48.882;12.598;2022-10-16T08:40:02;97067.66;;;18.09
64904;BMP280;51401;48.882;12.598;2022-10-16T08:47:51;97230.75;;;18.73
64904;BMP280;51401;48.882;12.598;2022-10-16T08:50:30;97285.59;;;18.80
64904;BMP280;51401;48.882;12.598;2022-10-16T08:52:57;97264.88;;;18.64
64904;BMP280;51401;48.882;12.598;2022-10-16T08:58:15;97215.69;;;18.38
64904;BMP280;51401;48.882;12.598;2022-10-16T09:00:42;97206.75;;;18.18
64904;BMP280;51401;48.882;12.598;2022-10-16T09:03:17;97154.25;;;18.00
64904;BMP280;51401;48.882;12.598;2022-10-16T09:08:51;97094.47;;;17.95
64904;BMP280;51401;48.882;12.598;2022-10-16T09:22:47;97365.63;;;19.14
64904;BMP280;51401;48.882;12.598;2022-10-16T09:25:18;97375.25;;;19.52
64904;BMP280;51401;48.882;12.598;2022-10-16T09:27:47;97427.41;;;19.63
64904;BMP280;51401;48.882;12.598;2022-10-16T09:30:18;97400.50;;;19.68
64904;BMP280;51401;48.882;12.598;2022-10-16T09:32:47;97442.59;;;19.94
64904;BMP280;51401;48.882;12.598;2022-10-16T09:35:16;97497.72;;;20.06
64904;BMP280;51401;48.882;12.598;2022-10-16T09:37:44;97553.84;;;20.03
64904;BMP280;51401;48.882;12.598;2022-10-16T09:40:13;97510.97;;;20.21
64904;BMP280;51401;48.882;12.598;2022-10-16T09:42:48;97576.16;;;20.78
64904;BMP280;51401;48.882;12.598;2022-10-16T09:45:22;97621.69;;;21.20
64904;BMP280;51401;48.882;12.598;2022-10-16T09:47:48;97690.69;;;21.18
64904;BMP280;51401;48.882;12.598;2022-10-16T09:50:25;97683.81;;;21.03
64904;BMP280;51401;48.882;12.598;2022-10-16T09:53:05;97664.53;;;20.97
64904;BMP280;51401;48.882;12.598;2022-10-16T09:55:31;97694.56;;;20.91
64904;BMP280;51401;48.882;12.598;2022-10-16T09:57:56;97693.31;;;21.27
64904;BMP280;51401;48.882;12.598;2022-10-16T10:00:23;97730.13;;;21.54
64904;BMP280;51401;48.882;12.598;2022-10-16T10:02:49;97751.25;;;21.62
64904;BMP280;51401;48.882;12.598;2022-10-16T10:05:20;97731.66;;;21.37
64904;BMP280;51401;48.882;12.598;2022-10-16T10:07:54;97718.28;;;21.40
64904;BMP280;51401;48.882;12.598;2022-10-16T10:10:30;97759.97;;;22.00
64904;BMP280;51401;48.882;12.598;2022-10-16T10:12:57;97727.25;;;21.75
64904;BMP280;51401;48.882;12.598;2022-10-16T10:15:23;97755.13;;;22.45
64904;BMP280;51401;48.882;12.598;2022-10-16T10:17:53;97750.09;;;21.55
64904;BMP280;51401;48.882;12.598;2022-10-16T10:20:33;97673.97;;;21.21
64904;BMP280;51401;48.882;12.598;2022-10-16T10:23:00;97721.38;;;21.48
64904;BMP280;51401;48.882;12.598;2022-10-16T10:28:03;97777.47;;;21.98
64904;BMP280;51401;48.882;12.598;2022-10-16T10:47:14;97810.59;;;22.91
64904;BMP280;51401;48.882;12.598;2022-10-16T10:52:43;97782.88;;;23.01
64904;BMP280;51401;48.882;12.598;2022-10-16T10:58:03;97826.53;;;22.82
64904;BMP280;51401;48.882;12.598;2022-10-16T11:05:56;97799.84;;;22.34
64904;BMP280;51401;48.882;12.598;2022-10-16T11:08:31;97755.81;;;22.54
64904;BMP280;51401;48.882;12.598;2022-10-16T11:11:00;97796.34;;;22.88
64904;BMP280;51401;48.882;12.598;2022-10-16T11:16:15;97809.31;;;22.63
64904;BMP280;51401;48.882;12.598;2022-10-16T11:18:51;97779.66;;;22.45
64904;BMP280;51401;48.882;12.598;2022-10-16T11:21:19;97779.50;;;22.49
64904;BMP280;51401;48.882;12.598;2022-10-16T11:23:56;97766.91;;;21.98
64904;BMP280;51401;48.882;12.598;2022-10-16T11:26:27;97754.84;;;21.97
64904;BMP280;51401;48.882;12.598;2022-10-16T11:28:54;97762.13;;;22.34
64904;BMP280;51401;48.882;12.598;2022-10-16T11:31:39;97762.56;;;22.32
64904;BMP280;51401;48.882;12.598;2022-10-16T11:36:51;97771.91;;;22.19
64904;BMP280;51401;48.882;12.598;2022-10-16T11:39:26;97782.13;;;22.49
64904;BMP280;51401;48.882;12.598;2022-10-16T11:42:11;97762.50;;;22.41
64904;BMP280;51401;48.882;12.598;2022-10-16T11:45:02;97779.63;;;22.68
64904;BMP280;51401;48.882;12.598;2022-10-16T11:47:35;97803.59;;;23.16
64904;BMP280;51401;48.882;12.598;2022-10-16T11:50:26;97849.50;;;23.28
64904;BMP280;51401;48.882;12.598;2022-10-16T11:55:37;97893.13;;;23.75
64904;BMP280;51401;48.882;12.598;2022-10-16T11:58:13;97889.94;;;23.28
64904;BMP280;51401;48.882;12.598;2022-10-16T12:00:46;97847.69;;;22.59
64904;BMP280;51401;48.882;12.598;2022-10-16T12:08:28;97873.78;;;23.26
64904;BMP280;51401;48.882;12.598;2022-10-16T12:10:53;97872.66;;;23.18
64904;BMP280;51401;48.882;12.598;2022-10-16T12:13:36;97875.78;;;23.17
64904;BMP280;51401;48.882;12.598;2022-10-16T12:18:38;97831.25;;;23.44
64904;BMP280;51401;48.882;12.598;2022-10-16T12:21:04;97910.50;;;23.62
64904;BMP280;51401;48.882;12.598;2022-10-16T12:23:53;97902.25;;;23.31
64904;BMP280;51401;48.882;12.598;2022-10-16T12:26:27;97905.06;;;23.70
64904;BMP280;51401;48.882;12.598;2022-10-16T12:28:55;97868.81;;;23.19
64904;BMP280;51401;48.882;12.598;2022-10-16T12:31:20;97820.13;;;22.74
64904;BMP280;51401;48.882;12.598;2022-10-16T12:34:03;97803.69;;;22.70
64904;BMP280;51401;48.882;12.598;2022-10-16T12:36:34;97733.47;;;22.18
64904;BMP280;51401;48.882;12.598;2022-10-16T12:39:00;97707.16;;;22.00
64904;BMP280;51401;48.882;12.598;2022-10-16T12:41:34;97713.16;;;22.01
64904;BMP280;51401;48.882;12.598;2022-10-16T12:44:01;97707.34;;;21.74
64904;BMP280;51401;48.882;12.598;2022-10-16T12:51:39;97650.38;;;21.82
64904;BMP280;51401;48.882;12.598;2022-10-16T12:54:29;97632.94;;;21.75
64904;BMP280;51401;48.882;12.598;2022-10-16T12:57:13;97618.97;;;21.83
64904;BMP280;51401;48.882;12.598;2022-10-16T12:59:51;97668.09;;;22.04
64904;BMP280;51401;48.882;12.598;2022-10-16T13:10:55;97818.56;;;23.48
64904;BMP280;51401;48.882;12.598;2022-10-16T13:13:51;97818.16;;;23.12
64904;BMP280;51401;48.882;12.598;2022-10-16T13:19:30;97781.31;;;23.09
64904;BMP280;51401;48.882;12.598;2022-10-16T13:22:47;97783.88;;;22.89
64904;BMP280;51401;48.882;12.598;2022-10-16T13:25:27;97784.59;;;22.89
64904;BMP280;51401;48.882;12.598;2022-10-16T13:27:58;97741.19;;;22.67
64904;BMP280;51401;48.882;12.598;2022-10-16T13:30:26;97765.56;;;22.62
64904;BMP280;51401;48.882;12.598;2022-10-16T13:33:01;97742.81;;;22.42
64904;BMP280;51401;48.882;12.598;2022-10-16T13:35:29;97714.41;;;22.51
64904;BMP280;51401;48.882;12.598;2022-10-16T13:38:14;97688.00;;;22.14
64904;BMP280;51401;48.882;12.598;2022-10-16T13:40:51;97650.28;;;22.13
64904;BMP280;51401;48.882;12.598;2022-10-16T13:43:19;97672.41;;;22.16
64904;BMP280;51401;48.882;12.598;2022-10-16T13:46:00;97605.59;;;21.87
64904;BMP280;51401;48.882;12.598;2022-10-16T13:48:26;97596.84;;;21.81
64904;BMP280;51401;48.882;12.598;2022-10-16T13:51:18;97561.06;;;21.80
64904;BMP280;51401;48.882;12.598;2022-10-16T13:53:44;97575.16;;;21.77
64904;BMP280;51401;48.882;12.598;2022-10-16T13:56:15;97553.75;;;21.75
64904;BMP280;51401;48.882;12.598;2022-10-16T13:58:41;97587.50;;;21.94
64904;BMP280;51401;48.882;12.598;2022-10-16T14:01:28;97567.91;;;21.63
64904;BMP280;51401;48.882;12.598;2022-10-16T14:04:00;97553.19;;;21.71
64904;BMP280;51401;48.882;12.598;2022-10-16T14:06:27;97597.88;;;21.98
64904;BMP280;51401;48.882;12.598;2022-10-16T14:11:54;97742.34;;;23.23
64904;BMP280;51401;48.882;12.598;2022-10-16T14:14:21;97767.25;;;23.31
64904;BMP280;51401;48.882;12.598;2022-10-16T14:16:47;97831.00;;;23.90
64904;BMP280;51401;48.882;12.598;2022-10-16T14:21:43;97817.81;;;23.62
64904;BMP280;51401;48.882;12.598;2022-10-16T14:24:13;97793.97;;;23.47
64904;BMP280;51401;48.882;12.598;2022-10-16T14:26:43;97780.13;;;23.38
64904;BMP280;51401;48.882;12.598;2022-10-16T14:29:14;97762.97;;;23.05
64904;BMP280;51401;48.882;12.598;2022-10-16T14:31:40;97744.19;;;23.03
64904;BMP280;51401;48.882;12.598;2022-10-16T14:34:33;97742.38;;;22.95
64904;BMP280;51401;48.882;12.598;2022-10-16T14:37:24;97686.00;;;22.46
64904;BMP280;51401;48.882;12.598;2022-10-16T14:39:50;97654.59;;;22.25
64904;BMP280;51401;48.882;12.598;2022-10-16T14:42:18;97650.38;;;22.19
64904;BMP280;51401;48.882;12.598;2022-10-16T14:44:46;97640.88;;;22.12
64904;BMP280;51401;48.882;12.598;2022-10-16T14:47:17;97615.81;;;21.94
64904;BMP280;51401;48.882;12.598;2022-10-16T14:49:47;97604.59;;;21.84
64904;BMP280;51401;48.882;12.598;2022-10-16T14:52:13;97610.53;;;21.94
64904;BMP280;51401;48.882;12.598;2022-10-16T14:54:39;97593.91;;;21.79
64904;BMP280;51401;48.882;12.598;2022-10-16T14:57:05;97561.66;;;21.75
64904;BMP280;51401;48.882;12.598;2022-10-16T14:59:40;97537.09;;;21.69
64904;BMP280;51401;48.882;12.598;2022-10-16T15:04:42;97541.31;;;21.53
64904;BMP280;51401;48.882;12.598;2022-10-16T15:07:08;97525.56;;;21.44
64904;BMP280;51401;48.882;12.598;2022-10-16T15:09:33;97497.94;;;21.30
64904;BMP280;51401;48.882;12.598;2022-10-16T15:11:58;97473.53;;;21.21
64904;BMP280;51401;48.882;12.598;2022-10-16T15:14:24;97447.94;;;21.13
64904;BMP280;51401;48.882;12.598;2022-10-16T15:16:49;97433.84;;;21.02
64904;BMP280;51401;48.882;12.598;2022-10-16T15:19:14;97406.94;;;20.89
64904;BMP280;51401;48.882;12.598;2022-10-16T15:21:40;97364.22;;;20.85
64904;BMP280;51401;48.882;12.598;2022-10-16T15:24:11;97367.41;;;20.89
64904;BMP280;51401;48.882;12.598;2022-10-16T15:26:37;97364.22;;;20.85
64904;BMP280;51401;48.882;12.598;2022-10-16T15:29:02;97337.94;;;20.76
64904;BMP280;51401;48.882;12.598;2022-10-16T15:31:28;97307.81;;;20.68
64904;BMP280;51401;48.882;12.598;2022-10-16T15:33:54;97296.09;;;20.69
64904;BMP280;51401;48.882;12.598;2022-10-16T15:36:27;97291.47;;;20.64
64904;BMP280;51401;48.882;12.598;2022-10-16T15:38:53;97254.31;;;20.62
64904;BMP280;51401;48.882;12.598;2022-10-16T15:41:19;97228.97;;;20.42
64904;BMP280;51401;48.882;12.598;2022-10-16T15:43:47;97211.59;;;20.35
64904;BMP280;51401;48.882;12.598;2022-10-16T15:46:13;97139.34;;;20.13
64904;BMP280;51401;48.882;12.598;2022-10-16T15:48:39;97144.63;;;20.13
64904;BMP280;51401;48.882;12.598;2022-10-16T15:51:06;97092.94;;;20.01